Saint-Marc, Haiti
Current Conditions -  °F | °C
As of 11:00 PM on Monday 22 Dec 2014 (Local Time) from MDST Reporting Station
Few Clouds Few Clouds  
Wind Chill: 70°   Ceiling: Unl
Heat Index: 70°   Visibility: 6mi
Dew Point: 70°   Wind: 6mph
Humidity: 100%   Direction: 160°SSE
Pressure: 30"   Gusts: NA
Location:  19.11°N, 72.7°W
Report Text: MDST 230400Z 16005KT 9999 FEW016 21/21 Q1016
Loading
Personal Weather Stations






























Interactive Weather Map New forecast layout! Learn more

10-Day Weather Forecast

Advertisements
Track Severe Weather on mobile